Time;durP1;ratioP1;P1;durP2;ratioP2;P2;SDS_P1;SDS_P2;PMS_P1;PMS_P2;Temp;Humidity;BMP_temperature;BMP_pressure;BME280_temperature;BME280_humidity;BME280_pressure;Samples;Min_cycle;Max_cycle;Signal;HPM_P1;HPM_P2
2020/12/02 00:04:11;;;;;;;161.88;72.82;;;;;;;-0.59;62.79;99763.49;249735;1138;115600;-73
2020/12/02 00:09:36;;;;;;;160.85;68.37;;;;;;;-0.63;62.43;99767.88;249405;1140;115964;-73
2020/12/02 00:14:42;;;;;;;160.53;71.57;;;;;;;-0.68;62.24;99768.76;249344;1132;115202;-72
2020/12/02 00:19:51;;;;;;;156.10;68.87;;;;;;;-0.72;63.04;99773.13;249315;1137;115359;-72
2020/12/02 00:25:26;;;;;;;159.70;67.82;;;;;;;-0.75;62.38;99768.81;249631;1136;116341;-73
2020/12/02 00:30:43;;;;;;;152.30;65.73;;;;;;;-0.75;61.91;99770.53;249361;1137;115375;-73
2020/12/02 00:36:18;;;;;;;145.30;62.70;;;;;;;-0.76;62.91;99772.28;249802;1138;118988;-73
2020/12/02 00:41:40;;;;;;;;;;;;;;;;;;;;;
2020/12/02 00:46:48;;;;;;;147.90;65.95;;;;;;;-0.82;63.51;99774.91;249756;1136;115330;-73
2020/12/02 00:52:03;;;;;;;149.97;61.80;;;;;;;-0.86;63.21;99765.36;249761;1138;115475;-73
2020/12/02 00:57:05;;;;;;;;;;;;;;;-0.80;61.99;99777.53;249679;1137;115177;-73
2020/12/02 01:02:52;;;;;;;139.60;62.75;;;;;;;-0.82;63.06;99776.66;250042;1137;102786;-71
2020/12/02 01:08:27;;;;;;;139.00;63.67;;;;;;;-0.79;62.01;99771.42;249411;1137;115450;-72
2020/12/02 01:13:52;;;;;;;141.63;62.13;;;;;;;-0.76;62.69;99771.41;249146;1137;115345;-72
2020/12/02 01:19:13;;;;;;;127.97;59.63;;;;;;;-0.76;62.55;99774.89;249177;1139;116534;-72
2020/12/02 01:24:52;;;;;;;127.47;59.30;;;;;;;-0.73;63.46;99777.49;249614;1137;115242;-72
2020/12/02 01:30:08;;;;;;;142.13;61.37;;;;;;;-0.67;62.38;99780.97;249240;1138;115296;-73
2020/12/02 01:35:42;;;;;;;133.78;59.83;;;;;;;-0.63;63.05;99780.08;249353;1137;115435;-73
2020/12/02 01:40:55;;;;;;;123.15;53.92;;;;;;;-0.63;62.56;99777.46;249497;1131;115722;-73
2020/12/02 01:46:24;;;;;;;117.08;52.58;;;;;;;-0.56;63.78;99777.41;249350;1137;115540;-73
2020/12/02 01:51:51;;;;;;;115.42;51.85;;;;;;;-0.47;63.60;99773.03;249377;1141;116093;-72
2020/12/02 01:57:13;;;;;;;122.98;55.28;;;;;;;-0.42;64.39;99776.47;249625;1138;115443;-72
2020/12/02 02:02:32;;;;;;;119.30;54.10;;;;;;;-0.39;62.91;99781.69;248432;1139;115462;-72
2020/12/02 02:07:55;;;;;;;;;;;;;;;-0.38;62.91;99773.82;248835;1140;115398;-73
2020/12/02 02:13:39;;;;;;;118.00;52.03;;;;;;;-0.40;63.66;99770.37;248831;1131;102615;-73
2020/12/02 02:18:56;;;;;;;113.17;50.57;;;;;;;-0.37;64.26;99780.81;249370;1138;115329;-72
2020/12/02 02:24:03;;;;;;;113.57;52.35;;;;;;;-0.35;64.31;99781.65;249251;1137;115718;-73
2020/12/02 02:29:27;;;;;;;115.43;49.50;;;;;;;-0.33;64.19;99779.05;249189;1137;115350;-73
2020/12/02 02:34:54;;;;;;;117.53;49.70;;;;;;;-0.30;64.27;99787.73;249585;1144;115357;-73
2020/12/02 02:40:23;;;;;;;107.15;48.92;;;;;;;-0.27;62.97;99785.11;249563;1136;114723;-72
2020/12/02 02:45:32;;;;;;;110.50;48.50;;;;;;;-0.28;63.84;99779.87;249495;1138;115050;-73
2020/12/02 02:51:06;;;;;;;113.57;50.92;;;;;;;-0.27;64.38;99786.86;249344;1138;115419;-72
2020/12/02 02:57:01;;;;;;;109.20;47.90;;;;;;;-0.28;63.55;99780.73;248448;1137;115492;-71
2020/12/02 03:02:43;;;;;;;116.73;50.67;;;;;;;-0.27;63.50;99785.11;247026;1133;115041;-73
2020/12/02 03:08:19;;;;;;;;;;;;;;;;;;;;;
2020/12/02 03:14:23;;;;;;;;;;;;;;;;;;;;;
2020/12/02 03:20:31;;;;;;;115.47;51.25;;;;;;;-0.19;64.09;99792.89;249154;1137;115564;-72
2020/12/02 03:25:50;;;;;;;121.80;52.50;;;;;;;-0.24;63.75;99786.81;249342;1138;115237;-71
2020/12/02 03:31:40;;;;;;;113.65;49.83;;;;;;;-0.26;62.67;99794.68;249421;1137;114984;-71
2020/12/02 03:37:25;;;;;;;95.35;43.65;;;;;;;-0.26;63.95;99792.06;249425;1138;115250;-71
2020/12/02 03:42:57;;;;;;;80.57;37.23;;;;;;;-0.22;64.22;99792.91;249848;1137;115064;-69
2020/12/02 03:48:24;;;;;;;71.28;34.25;;;;;;;-0.08;63.46;99790.20;249640;1137;115195;-70
2020/12/02 03:54:02;;;;;;;70.10;33.73;;;;;;;-0.10;63.55;99799.80;249523;1137;115819;-70
2020/12/02 03:59:21;;;;;;;68.97;33.03;;;;;;;-0.12;63.84;99799.82;249220;1138;115038;-69
2020/12/02 04:04:46;;;;;;;68.22;32.63;;;;;;;-0.15;63.36;99798.97;249366;1137;115187;-70
2020/12/02 04:09:54;;;;;;;73.70;36.00;;;;;;;-0.20;63.31;99804.25;248604;1140;116294;-69
2020/12/02 04:15:38;;;;;;;67.82;33.30;;;;;;;-0.26;62.84;99794.68;248422;1141;115950;-69
2020/12/02 04:20:52;;;;;;;70.03;34.27;;;;;;;-0.28;63.61;99801.66;248536;1141;115669;-72
2020/12/02 04:26:44;;;;;;;68.05;34.35;;;;;;;-0.29;63.56;99804.30;248764;1144;115288;-72
2020/12/02 04:32:20;;;;;;;68.70;33.55;;;;;;;-0.28;63.68;99812.11;249534;1138;115236;-72
2020/12/02 04:37:28;;;;;;;62.53;31.70;;;;;;;-0.27;64.06;99807.78;249412;1130;115587;-72
2020/12/02 04:51:25;;;;;;;;;;;;;;;;;;;;;
2020/12/02 05:03:15;;;;;;;68.42;33.38;;;;;;;-0.32;63.45;99818.25;247987;1144;114954;-70
2020/12/02 05:08:36;;;;;;;61.10;31.47;;;;;;;-0.40;62.92;99824.41;248341;1143;115164;-71
2020/12/02 05:14:04;;;;;;;65.37;33.75;;;;;;;-0.42;63.17;99821.78;249083;1140;115254;-71
2020/12/02 05:19:49;;;;;;;;;;;;;;;;;;;;;
2020/12/02 05:25:38;;;;;;;69.67;34.73;;;;;;;-0.43;62.80;99820.06;249221;1136;102829;-76
2020/12/02 05:32:01;;;;;;;;;;;;;;;;;;;;;
2020/12/02 05:38:37;;;;;;;;;;;;;;;;;;;;;
2020/12/02 05:44:57;;;;;;;55.47;29.23;;;;;;;-0.46;63.40;99817.45;248082;1143;115643;-76
2020/12/02 05:50:41;;;;;;;52.57;27.13;;;;;;;-0.51;63.04;99819.20;247861;1146;117802;-78
2020/12/02 05:55:47;;;;;;;55.20;28.00;;;;;;;-0.52;63.15;99828.80;248286;1142;115615;-76
2020/12/02 06:01:22;;;;;;;56.53;28.20;;;;;;;-0.49;63.29;99830.53;248659;1134;119121;-72
2020/12/02 06:06:38;;;;;;;57.73;28.77;;;;;;;-0.46;63.53;99827.05;249189;1137;116125;-74
2020/12/02 06:12:03;;;;;;;56.48;28.62;;;;;;;-0.45;62.74;99823.55;249517;1144;115274;-73
2020/12/02 06:17:14;;;;;;;57.07;29.50;;;;;;;-0.37;64.15;99830.49;249134;1139;115253;-81
2020/12/02 06:22:48;;;;;;;58.05;28.02;;;;;;;-0.36;63.46;99831.36;249437;1139;114817;-82
2020/12/02 06:27:56;;;;;;;52.90;27.17;;;;;;;-0.35;63.68;99839.17;249593;1137;114902;-81
2020/12/02 06:33:15;;;;;;;51.42;25.25;;;;;;;-0.45;62.45;99840.09;249736;1137;114927;-76
2020/12/02 06:38:32;;;;;;;49.10;25.05;;;;;;;-0.49;63.33;99836.62;249463;1137;114869;-78
2020/12/02 06:44:01;;;;;;;44.53;23.70;;;;;;;-0.55;62.90;99833.17;249219;1138;114956;-76
2020/12/02 06:49:15;;;;;;;47.37;23.43;;;;;;;-0.47;63.14;99839.26;248806;1137;115152;-74
2020/12/02 06:54:34;;;;;;;45.17;24.67;;;;;;;-0.49;63.37;99841.00;249528;1136;114909;-72
2020/12/02 06:59:55;;;;;;;46.53;23.63;;;;;;;-0.58;63.82;99851.48;249494;1137;115047;-72
2020/12/02 07:05:15;;;;;;;;;;;;;;;;;;;;;
2020/12/02 07:10:30;;;;;;;51.75;26.77;;;;;;;-0.69;63.74;99842.82;249366;1139;115229;-69
2020/12/02 07:15:36;;;;;;;49.67;24.67;;;;;;;-0.66;62.55;99837.58;248780;1140;115782;-72
2020/12/02 07:21:44;;;;;;;54.63;27.13;;;;;;;-0.70;63.86;99838.48;249177;1142;115150;-72
2020/12/02 07:27:04;;;;;;;55.57;26.80;;;;;;;-0.74;63.75;99829.78;249116;1139;115257;-71
2020/12/02 07:32:20;;;;;;;48.52;25.35;;;;;;;-0.68;63.00;99839.32;249424;1138;114679;-72
2020/12/02 07:37:38;;;;;;;47.90;24.80;;;;;;;-0.66;63.88;99841.06;249401;1138;114882;-73
2020/12/02 07:43:03;;;;;;;50.85;24.60;;;;;;;-0.60;63.53;99840.18;249389;1137;115553;-73
2020/12/02 07:48:23;;;;;;;48.65;24.57;;;;;;;-0.56;62.62;99839.28;250072;1137;115030;-73
